Time;durP1;ratioP1;P1;durP2;ratioP2;P2;SDS_P1;SDS_P2;PMS_P1;PMS_P2;Temp;Humidity;BMP_temperature;BMP_pressure;BME280_temperature;BME280_humidity;BME280_pressure;Samples;Min_cycle;Max_cycle;Signal;HPM_P1;HPM_P2
2022/03/03 00:01:26;;;;;;;19.43;8.27;;;-2.10;98.70;;;;;;5033784;28;20191;-68
2022/03/03 00:03:51;;;;;;;26.43;9.57;;;-2.10;98.70;;;;;;5028235;28;20268;-66
2022/03/03 00:06:17;;;;;;;17.00;8.90;;;-2.10;98.60;;;;;;5027958;28;20197;-69
2022/03/03 00:08:42;;;;;;;20.70;9.80;;;-2.20;98.50;;;;;;5028040;28;20202;-68
2022/03/03 00:11:08;;;;;;;24.43;10.40;;;-2.20;98.60;;;;;;5027739;28;20194;-68
2022/03/03 00:13:34;;;;;;;19.33;9.30;;;-2.20;98.60;;;;;;5030011;28;20217;-68
2022/03/03 00:16:02;;;;;;;26.27;10.83;;;-2.20;98.60;;;;;;5029875;28;20182;-68
2022/03/03 00:18:28;;;;;;;23.23;10.30;;;-2.20;99.10;;;;;;5028613;28;20269;-68
2022/03/03 00:20:53;;;;;;;28.20;10.50;;;-2.40;98.80;;;;;;5027503;28;20512;-68
2022/03/03 00:23:19;;;;;;;25.80;10.43;;;-2.40;98.90;;;;;;5028113;28;20194;-69
2022/03/03 00:25:45;;;;;;;24.33;8.87;;;-2.40;99.50;;;;;;5028062;28;20265;-68
2022/03/03 00:28:10;;;;;;;24.97;11.57;;;-2.40;99.00;;;;;;5025571;28;21016;-67
2022/03/03 00:30:36;;;;;;;23.50;9.87;;;-2.40;98.90;;;;;;5027522;28;20196;-67
2022/03/03 00:33:01;;;;;;;33.33;10.70;;;-2.40;99.10;;;;;;5022647;28;20182;-66
2022/03/03 00:35:27;;;;;;;20.33;9.93;;;-2.40;98.90;;;;;;5028353;28;20182;-67
2022/03/03 00:37:53;;;;;;;18.43;9.07;;;-2.40;99.00;;;;;;5029612;28;20698;-67
2022/03/03 00:40:19;;;;;;;27.73;10.23;;;-2.40;99.00;;;;;;5026425;28;20212;-67
2022/03/03 00:42:44;;;;;;;28.90;10.60;;;-2.50;99.10;;;;;;5028796;28;20218;-67
2022/03/03 00:45:10;;;;;;;24.00;10.10;;;-2.50;99.20;;;;;;5027843;28;20499;-67
2022/03/03 00:47:36;;;;;;;21.97;10.40;;;-2.60;99.40;;;;;;5031704;28;20214;-67
2022/03/03 00:50:02;;;;;;;22.50;9.80;;;-2.60;99.70;;;;;;5022605;28;20198;-67
2022/03/03 00:52:28;;;;;;;25.87;10.60;;;-2.60;99.90;;;;;;5024803;28;20182;-67
2022/03/03 00:54:53;;;;;;;31.53;11.07;;;-2.70;99.70;;;;;;5028475;28;20487;-67
2022/03/03 00:57:19;;;;;;;25.13;10.23;;;-2.70;99.90;;;;;;5027384;28;20674;-67
2022/03/03 00:59:45;;;;;;;23.70;10.40;;;-2.70;99.70;;;;;;5027790;28;20190;-67
2022/03/03 01:02:10;;;;;;;29.47;9.90;;;-2.60;99.90;;;;;;5027449;28;20654;-68
2022/03/03 01:04:36;;;;;;;19.97;9.43;;;-2.70;99.80;;;;;;5027146;28;20186;-67
2022/03/03 01:07:01;;;;;;;24.50;9.10;;;-2.70;99.90;;;;;;5027223;28;20205;-67
2022/03/03 01:09:27;;;;;;;18.60;8.93;;;-2.70;99.80;;;;;;5024615;28;20194;-67
2022/03/03 01:11:53;;;;;;;28.73;9.97;;;-2.70;99.90;;;;;;5029539;28;20561;-67
2022/03/03 01:14:21;;;;;;;23.93;9.73;;;-2.70;99.80;;;;;;5025004;28;20561;-67
2022/03/03 01:16:50;;;;;;;29.33;11.80;;;-2.60;99.90;;;;;;5028435;28;21001;-67
2022/03/03 01:19:17;;;;;;;27.00;9.93;;;-2.70;99.70;;;;;;5026384;28;20417;-66
2022/03/03 01:21:43;;;;;;;24.70;9.90;;;-2.60;99.60;;;;;;5027103;28;20440;-67
2022/03/03 01:24:08;;;;;;;21.83;10.27;;;-2.60;99.70;;;;;;5026673;28;21187;-67
2022/03/03 01:26:34;;;;;;;28.60;9.80;;;-2.60;99.60;;;;;;5026560;28;20186;-68
2022/03/03 01:29:00;;;;;;;24.93;10.30;;;-2.70;99.70;;;;;;5026183;28;20256;-68
2022/03/03 01:31:26;;;;;;;18.70;7.63;;;-2.70;99.60;;;;;;5026788;28;20284;-67
2022/03/03 01:33:51;;;;;;;26.07;10.67;;;-2.60;99.80;;;;;;5024398;28;20417;-67
2022/03/03 01:36:18;;;;;;;29.10;12.70;;;-2.70;99.70;;;;;;5034054;28;20201;-65
2022/03/03 01:38:44;;;;;;;28.77;12.07;;;-2.70;99.70;;;;;;5031071;28;20213;-65
2022/03/03 01:41:10;;;;;;;29.73;11.00;;;-2.80;99.70;;;;;;5024448;28;20454;-65
2022/03/03 01:43:37;;;;;;;28.93;11.50;;;-2.90;99.80;;;;;;5029723;28;20437;-65
2022/03/03 01:46:02;;;;;;;30.33;10.77;;;-3.00;99.90;;;;;;5030762;28;20562;-65
2022/03/03 01:48:28;;;;;;;31.60;12.00;;;-3.00;99.90;;;;;;5030382;28;21027;-66
2022/03/03 01:50:54;;;;;;;30.00;11.77;;;-3.10;99.90;;;;;;5029701;28;20188;-66
2022/03/03 01:53:20;;;;;;;29.60;10.33;;;-3.10;99.90;;;;;;5030363;28;20240;-66
2022/03/03 01:55:46;;;;;;;42.30;15.90;;;-3.10;99.90;;;;;;5030585;28;20897;-66
2022/03/03 01:58:12;;;;;;;30.90;11.53;;;-3.10;99.90;;;;;;5029230;28;20217;-66
2022/03/03 02:00:38;;;;;;;19.97;9.00;;;-3.10;99.90;;;;;;5032030;28;20424;-66
2022/03/03 02:03:03;;;;;;;32.53;9.00;;;-3.00;99.90;;;;;;5032325;28;20424;-66
2022/03/03 02:05:30;;;;;;;19.17;8.33;;;-3.10;99.90;;;;;;5032410;28;20425;-66
2022/03/03 02:07:57;;;;;;;20.67;9.60;;;-3.00;99.90;;;;;;5035776;28;20202;-66
2022/03/03 02:10:23;;;;;;;23.33;8.90;;;-3.10;99.90;;;;;;5033336;28;20423;-66
2022/03/03 02:12:49;;;;;;;14.50;8.63;;;-3.00;99.90;;;;;;5035695;28;20417;-66
2022/03/03 02:15:19;;;;;;;18.30;9.07;;;-3.00;99.90;;;;;;5030922;28;20428;-66
2022/03/03 02:17:45;;;;;;;20.13;9.00;;;-3.00;99.90;;;;;;5033974;28;20255;-66
2022/03/03 02:20:22;;;;;;;27.63;9.33;;;-3.00;99.90;;;;;;5029496;28;20783;-66
2022/03/03 02:22:49;;;;;;;25.40;9.13;;;-3.10;99.90;;;;;;5030397;28;20424;-66
2022/03/03 02:25:15;;;;;;;23.87;9.63;;;-3.10;99.90;;;;;;5038644;28;20955;-66
2022/03/03 02:27:43;;;;;;;26.07;10.03;;;-3.10;99.90;;;;;;5025182;28;20514;-68
2022/03/03 02:30:09;;;;;;;23.13;8.70;;;-3.10;99.90;;;;;;5033549;28;21000;-68
2022/03/03 02:32:35;;;;;;;22.93;9.67;;;-3.10;99.90;;;;;;5031225;28;20427;-66
2022/03/03 02:35:01;;;;;;;18.53;8.03;;;-3.10;99.90;;;;;;5030199;28;20417;-66
2022/03/03 02:37:41;;;;;;;17.70;8.30;;;-3.10;99.90;;;;;;5030155;28;20186;-65
2022/03/03 02:40:09;;;;;;;16.10;7.37;;;-3.20;99.90;;;;;;5029007;28;20202;-65
2022/03/03 02:42:36;;;;;;;14.23;8.20;;;-3.10;99.90;;;;;;5029795;28;20793;-67
2022/03/03 02:45:03;;;;;;;18.40;8.57;;;-3.10;99.90;;;;;;5029361;28;20730;-65
2022/03/03 02:47:29;;;;;;;18.77;8.10;;;-3.20;99.90;;;;;;5030429;28;20523;-65
2022/03/03 02:49:54;;;;;;;16.53;8.40;;;-3.10;99.90;;;;;;5028841;28;20448;-65
2022/03/03 02:52:20;;;;;;;22.60;8.40;;;-3.20;99.90;;;;;;5030891;28;20803;-62
2022/03/03 02:54:45;;;;;;;22.70;10.20;;;-3.30;99.90;;;;;;5032170;28;20841;-67
2022/03/03 02:59:56;;;;;;;19.53;9.50;;;-3.30;99.90;;;;;;5034626;28;20244;-66
2022/03/03 03:02:21;;;;;;;25.53;9.87;;;-3.30;99.90;;;;;;5030619;28;20897;-66
2022/03/03 03:04:47;;;;;;;20.10;8.60;;;-3.30;99.90;;;;;;5026801;28;20191;-66
2022/03/03 03:07:13;;;;;;;21.80;9.17;;;-3.30;99.90;;;;;;5029558;28;20689;-67
2022/03/03 03:09:38;;;;;;;20.87;8.00;;;-3.20;99.90;;;;;;5029653;28;20202;-67
2022/03/03 03:12:04;;;;;;;16.30;7.63;;;-3.20;99.90;;;;;;5034337;28;20268;-68
2022/03/03 03:14:30;;;;;;;22.73;9.20;;;-3.20;99.90;;;;;;5030222;28;20178;-68
2022/03/03 03:16:55;;;;;;;18.67;8.87;;;-3.20;99.90;;;;;;5035752;28;20609;-68
2022/03/03 03:19:21;;;;;;;26.70;8.53;;;-3.30;99.90;;;;;;5029507;28;20189;-68
2022/03/03 03:21:47;;;;;;;19.20;8.63;;;-3.30;99.90;;;;;;5027696;28;20183;-68
2022/03/03 03:24:13;;;;;;;18.00;7.97;;;-3.40;99.90;;;;;;5029249;28;20256;-68
2022/03/03 03:26:39;;;;;;;18.90;8.73;;;-3.30;99.90;;;;;;5028065;28;20344;-68
2022/03/03 03:29:04;;;;;;;21.00;8.80;;;-3.30;99.90;;;;;;5030934;28;21028;-68
2022/03/03 03:31:30;;;;;;;15.27;8.00;;;-3.20;99.90;;;;;;5028775;28;20189;-68
2022/03/03 03:33:56;;;;;;;17.03;7.77;;;-3.30;99.90;;;;;;5031634;28;20237;-68
2022/03/03 03:36:22;;;;;;;19.20;8.20;;;-3.30;99.90;;;;;;5031691;28;20282;-68
2022/03/03 03:38:48;;;;;;;34.40;8.60;;;-3.40;99.90;;;;;;5028371;28;20233;-66
2022/03/03 03:41:13;;;;;;;21.23;8.80;;;-3.40;99.90;;;;;;5028528;28;20433;-66
2022/03/03 03:43:39;;;;;;;23.10;7.93;;;-3.40;99.90;;;;;;5029015;28;20437;-66
2022/03/03 03:46:05;;;;;;;21.70;9.87;;;-3.40;99.90;;;;;;5028466;28;20197;-66
2022/03/03 03:48:31;;;;;;;20.30;7.43;;;-3.40;99.90;;;;;;5031075;28;20221;-66
2022/03/03 03:50:56;;;;;;;15.20;8.33;;;-3.40;99.90;;;;;;5031994;28;20556;-66
2022/03/03 03:53:23;;;;;;;41.90;12.70;;;-3.40;99.90;;;;;;5028330;28;20191;-66
2022/03/03 03:55:50;;;;;;;36.53;12.00;;;-3.40;99.90;;;;;;5028756;28;20221;-66
2022/03/03 03:58:16;;;;;;;33.57;11.20;;;-3.50;99.90;;;;;;5033472;28;20432;-66
2022/03/03 04:00:42;;;;;;;19.17;9.20;;;-3.40;99.90;;;;;;5030887;28;20483;-68
2022/03/03 04:03:08;;;;;;;34.87;12.63;;;-3.40;99.90;;;;;;5032418;28;20285;-66
2022/03/03 04:05:33;;;;;;;27.03;9.20;;;-3.40;99.90;;;;;;5035088;28;20443;-67
2022/03/03 04:07:59;;;;;;;22.47;9.73;;;-3.40;99.90;;;;;;5028199;28;20469;-66
2022/03/03 04:10:25;;;;;;;21.77;9.90;;;-3.50;99.90;;;;;;5027926;28;20240;-66
2022/03/03 04:12:50;;;;;;;20.60;8.73;;;-3.50;99.90;;;;;;5028497;28;20182;-66
2022/03/03 04:15:16;;;;;;;19.23;8.87;;;-3.60;99.90;;;;;;5030191;28;20224;-66
2022/03/03 04:17:42;;;;;;;25.40;8.97;;;-3.70;99.90;;;;;;5028471;28;20190;-66
2022/03/03 04:20:08;;;;;;;20.90;8.37;;;-3.70;99.90;;;;;;5027323;28;20273;-66
2022/03/03 04:22:35;;;;;;;19.60;8.33;;;-3.80;99.90;;;;;;5025419;28;20202;-67
2022/03/03 04:25:01;;;;;;;15.70;8.03;;;-3.80;99.90;;;;;;5028354;28;21303;-66
2022/03/03 04:27:27;;;;;;;18.13;6.93;;;-3.70;99.90;;;;;;5026754;28;20579;-66
2022/03/03 04:29:52;;;;;;;15.80;6.87;;;-3.70;99.90;;;;;;5027519;28;20532;-66
2022/03/03 04:32:18;;;;;;;21.00;9.17;;;-3.60;99.90;;;;;;5027165;28;20187;-66
2022/03/03 04:34:44;;;;;;;24.30;8.40;;;-3.60;99.90;;;;;;5027420;28;20214;-66
2022/03/03 04:37:10;;;;;;;17.40;9.10;;;-3.60;99.90;;;;;;5028704;28;20556;-66
2022/03/03 04:39:36;;;;;;;18.00;7.40;;;-3.70;99.90;;;;;;5027074;28;20929;-66
2022/03/03 04:42:02;;;;;;;19.50;8.77;;;-3.70;99.90;;;;;;5025072;28;20461;-66
2022/03/03 04:44:27;;;;;;;16.90;8.47;;;-3.70;99.90;;;;;;5027483;28;20261;-66
2022/03/03 04:46:53;;;;;;;17.60;8.70;;;-3.70;99.90;;;;;;5027099;28;20241;-66
2022/03/03 04:49:19;;;;;;;21.57;8.80;;;-3.70;99.90;;;;;;5026896;28;20201;-66
2022/03/03 04:51:45;;;;;;;19.37;9.70;;;-3.70;99.90;;;;;;5027105;28;20187;-66
2022/03/03 04:54:11;;;;;;;21.43;9.63;;;-3.80;99.90;;;;;;5029886;28;20307;-66
2022/03/03 04:56:38;;;;;;;19.70;8.70;;;-3.90;99.90;;;;;;5030819;28;20190;-66
2022/03/03 04:59:05;;;;;;;24.17;10.10;;;-3.90;99.90;;;;;;5033001;28;20951;-66
2022/03/03 05:01:31;;;;;;;19.83;9.17;;;-4.00;99.90;;;;;;5036063;28;20439;-66
2022/03/03 05:03:57;;;;;;;15.50;9.10;;;-4.00;99.90;;;;;;5027399;28;20457;-66
2022/03/03 05:06:23;;;;;;;19.03;8.23;;;-4.00;99.90;;;;;;5036043;28;20494;-66
2022/03/03 05:08:49;;;;;;;14.77;7.83;;;-3.90;99.90;;;;;;5032345;28;20599;-66
2022/03/03 05:11:15;;;;;;;28.70;9.37;;;-3.90;99.90;;;;;;5032429;28;20535;-66
2022/03/03 05:13:41;;;;;;;20.33;8.53;;;-3.90;99.90;;;;;;5034481;28;20424;-66
2022/03/03 05:16:07;;;;;;;14.17;7.00;;;-3.90;99.90;;;;;;5031935;28;20867;-66
2022/03/03 05:18:33;;;;;;;14.50;7.00;;;-3.90;99.90;;;;;;5027034;28;20666;-66
2022/03/03 05:20:58;;;;;;;13.27;7.27;;;-3.80;99.90;;;;;;5026272;28;20423;-66
2022/03/03 05:23:24;;;;;;;23.90;9.10;;;-3.90;99.90;;;;;;5026994;28;21192;-66
2022/03/03 05:25:50;;;;;;;18.60;9.00;;;-4.00;99.90;;;;;;5026756;28;20186;-66
2022/03/03 05:28:16;;;;;;;18.37;9.60;;;-4.10;99.90;;;;;;5029390;28;20276;-66
2022/03/03 05:30:42;;;;;;;23.57;8.67;;;-4.10;99.90;;;;;;5028291;28;20187;-66
2022/03/03 05:33:08;;;;;;;28.67;9.13;;;-4.00;99.90;;;;;;5026755;28;20209;-66
2022/03/03 05:35:33;;;;;;;20.43;7.80;;;-4.00;99.90;;;;;;5026979;28;20417;-66
2022/03/03 05:37:59;;;;;;;18.37;9.47;;;-4.00;99.90;;;;;;5028694;28;20769;-66
2022/03/03 05:40:25;;;;;;;16.73;8.80;;;-3.90;99.90;;;;;;5025578;28;20751;-66
2022/03/03 05:42:52;;;;;;;26.73;9.40;;;-3.90;99.90;;;;;;5035155;28;20527;-66
2022/03/03 05:45:17;;;;;;;20.83;8.00;;;-3.90;99.90;;;;;;5032803;28;20516;-66
2022/03/03 05:47:45;;;;;;;29.80;9.90;;;-4.00;99.90;;;;;;5029289;28;20566;-66
2022/03/03 05:50:11;;;;;;;3.17;1.23;;;-4.00;99.90;;;;;;5025382;28;20190;-66
2022/03/03 05:52:36;;;;;;;1.40;0.77;;;-3.90;99.90;;;;;;5026927;28;20495;-66
2022/03/03 05:55:03;;;;;;;20.00;9.03;;;-3.80;99.90;;;;;;5027723;28;20205;-66
2022/03/03 05:57:35;;;;;;;17.90;8.53;;;-3.80;99.90;;;;;;5030333;28;20666;-66
2022/03/03 06:00:13;;;;;;;18.40;8.83;;;-3.80;99.90;;;;;;5028300;28;20433;-66
2022/03/03 06:02:53;;;;;;;23.57;10.13;;;-3.80;99.90;;;;;;5027531;28;21011;-66
2022/03/03 06:05:28;;;;;;;19.43;9.00;;;-3.80;99.90;;;;;;5028553;28;20511;-66
2022/03/03 06:08:03;;;;;;;3.73;1.60;;;-3.80;99.90;;;;;;5022979;28;20465;-66
2022/03/03 06:10:32;;;;;;;1.80;1.17;;;-3.80;99.90;;;;;;5025571;28;20413;-66
2022/03/03 06:13:09;;;;;;;1.60;1.10;;;-3.90;99.90;;;;;;5026955;28;20844;-67
2022/03/03 06:15:37;;;;;;;23.20;9.20;;;-3.90;99.90;;;;;;5021128;28;20506;-66
2022/03/03 06:18:03;;;;;;;19.20;7.77;;;-4.00;99.90;;;;;;5027059;28;20425;-66
2022/03/03 06:20:30;;;;;;;1.50;0.70;;;-4.00;99.90;;;;;;5025313;28;20436;-67
2022/03/03 06:22:56;;;;;;;1.20;0.60;;;-4.10;99.90;;;;;;5026892;28;20441;-66
2022/03/03 06:25:22;;;;;;;29.83;9.33;;;-4.00;99.90;;;;;;5030004;28;20433;-66
2022/03/03 06:27:47;;;;;;;18.07;9.27;;;-4.00;99.90;;;;;;5030589;28;20293;-66
2022/03/03 06:30:14;;;;;;;23.60;12.23;;;-4.00;99.90;;;;;;5029716;28;20299;-66
2022/03/03 06:32:39;;;;;;;24.80;11.17;;;-3.90;99.90;;;;;;5030549;28;20494;-66
2022/03/03 06:35:05;;;;;;;29.00;11.03;;;-3.80;99.90;;;;;;5031487;28;20425;-66
2022/03/03 06:37:32;;;;;;;1.50;0.80;;;-3.90;99.90;;;;;;5029918;28;20187;-66
2022/03/03 06:39:58;;;;;;;4.37;1.27;;;-3.90;99.90;;;;;;5028514;28;20202;-65
2022/03/03 06:42:23;;;;;;;1.70;1.07;;;-3.80;99.90;;;;;;5030622;28;20870;-65
2022/03/03 06:44:49;;;;;;;23.93;10.93;;;-3.80;99.90;;;;;;5030259;28;20252;-65
2022/03/03 06:47:16;;;;;;;2.13;1.03;;;-3.70;99.90;;;;;;5030238;28;20190;-65
2022/03/03 06:49:41;;;;;;;2.17;1.23;;;-3.60;99.90;;;;;;5028630;28;20631;-65
2022/03/03 06:52:08;;;;;;;1.87;0.80;;;-3.50;99.90;;;;;;5025722;28;20424;-65
2022/03/03 06:54:34;;;;;;;4.93;0.87;;;-3.40;99.90;;;;;;5030349;28;20197;-65
2022/03/03 06:57:00;;;;;;;25.33;12.50;;;-3.30;99.90;;;;;;5025575;28;20426;-65
2022/03/03 06:59:33;;;;;;;34.97;13.83;;;-3.30;99.90;;;;;;5029023;28;20186;-65
2022/03/03 07:02:00;;;;;;;37.70;15.03;;;-3.20;99.90;;;;;;5032620;28;20421;-65
2022/03/03 07:04:28;;;;;;;35.57;13.33;;;-3.20;99.90;;;;;;5022336;28;20479;-65
2022/03/03 07:06:54;;;;;;;46.77;17.37;;;-3.10;99.90;;;;;;5028478;28;20470;-65
2022/03/03 07:09:20;;;;;;;45.00;16.30;;;-3.10;99.90;;;;;;5029135;28;20472;-65
2022/03/03 07:11:47;;;;;;;14.67;3.97;;;-3.10;99.90;;;;;;5028735;28;20420;-65
2022/03/03 07:14:14;;;;;;;1.30;0.70;;;-3.00;99.90;;;;;;5033204;28;20186;-65
2022/03/03 07:16:42;;;;;;;11.07;4.60;;;-2.80;99.90;;;;;;5031012;28;20409;-65
2022/03/03 07:19:18;;;;;;;40.30;15.97;;;-2.70;99.90;;;;;;5026856;28;20413;-65
2022/03/03 07:22:16;;;;;;;38.63;15.67;;;-2.50;99.90;;;;;;5023714;28;20428;-65
2022/03/03 07:24:58;;;;;;;20.23;4.73;;;-2.10;99.90;;;;;;5031219;28;20417;-66
2022/03/03 07:27:25;;;;;;;27.67;12.37;;;-1.90;99.90;;;;;;5032294;28;20468;-65
2022/03/03 07:29:58;;;;;;;38.63;11.90;;;-1.60;99.90;;;;;;5029371;28;20463;-68
2022/03/03 07:32:31;;;;;;;28.30;11.80;;;-1.40;99.90;;;;;;5030055;28;20417;-68
2022/03/03 07:35:01;;;;;;;27.93;12.50;;;-1.20;99.90;;;;;;5025965;28;20923;-68
2022/03/03 07:37:35;;;;;;;36.37;12.17;;;-0.90;99.90;;;;;;5028381;28;20982;-65
2022/03/03 07:40:07;;;;;;;24.83;12.13;;;-0.40;99.90;;;;;;5030249;28;20453;-67
2022/03/03 07:42:33;;;;;;;40.77;12.03;;;0.00;99.90;;;;;;5029776;28;20991;-67
2022/03/03 07:44:59;;;;;;;22.17;10.37;;;0.40;98.80;;;;;;5030874;28;20421;-68
2022/03/03 07:47:27;;;;;;;32.33;11.40;;;0.70;98.20;;;;;;5029534;28;20221;-68
2022/03/03 07:49:55;;;;;;;25.73;10.37;;;1.00;98.10;;;;;;5026826;28;20187;-68
2022/03/03 07:52:21;;;;;;;16.53;8.50;;;1.60;96.50;;;;;;5023255;28;20433;-68
2022/03/03 07:54:48;;;;;;;13.83;7.40;;;1.90;95.70;;;;;;5025232;28;20529;-68
2022/03/03 07:57:17;;;;;;;22.70;8.40;;;2.50;95.00;;;;;;5028602;28;20571;-68
2022/03/03 07:59:48;;;;;;;18.53;8.53;;;3.40;92.70;;;;;;5032479;28;20216;-68
2022/03/03 08:02:22;;;;;;;13.43;7.60;;;3.80;92.00;;;;;;5028042;28;20570;-68
2022/03/03 08:04:50;;;;;;;19.03;9.10;;;4.40;92.00;;;;;;5027068;28;20420;-68
2022/03/03 08:07:17;;;;;;;15.80;8.70;;;5.60;88.30;;;;;;5029709;28;20428;-68
2022/03/03 08:09:46;;;;;;;26.63;9.77;;;6.40;83.70;;;;;;5029308;28;20504;-68
2022/03/03 08:12:15;;;;;;;20.13;9.10;;;6.60;82.30;;;;;;5032561;28;20424;-68
2022/03/03 08:14:41;;;;;;;16.17;8.17;;;6.80;81.70;;;;;;5029832;28;20420;-69
2022/03/03 08:17:08;;;;;;;23.27;8.97;;;6.70;81.30;;;;;;5028824;28;20854;-69
2022/03/03 08:19:34;;;;;;;16.60;9.47;;;6.10;83.20;;;;;;5027874;28;20191;-69
2022/03/03 08:21:59;;;;;;;20.10;7.70;;;6.20;83.30;;;;;;5027108;28;20478;-69
2022/03/03 08:24:26;;;;;;;16.47;7.10;;;6.50;83.80;;;;;;5027960;28;20760;-69
2022/03/03 08:26:55;;;;;;;16.87;8.43;;;6.70;82.10;;;;;;5028084;28;20631;-69
2022/03/03 08:29:21;;;;;;;26.90;9.23;;;7.00;81.20;;;;;;5027366;28;20964;-69
2022/03/03 08:31:52;;;;;;;19.10;7.97;;;6.80;80.60;;;;;;5027694;28;20432;-69
2022/03/03 08:34:23;;;;;;;13.00;7.40;;;7.00;81.40;;;;;;5025549;28;20451;-69
2022/03/03 08:36:56;;;;;;;17.63;7.80;;;7.90;76.00;;;;;;5026325;28;20428;-69
2022/03/03 08:39:27;;;;;;;18.70;8.37;;;8.00;78.20;;;;;;5023469;28;20840;-69
2022/03/03 08:42:00;;;;;;;16.53;7.77;;;9.10;73.10;;;;;;5024373;28;20426;-69
2022/03/03 08:44:30;;;;;;;15.33;7.80;;;9.10;73.10;;;;;;5024689;28;20436;-69
2022/03/03 08:46:57;;;;;;;18.23;8.30;;;8.80;72.90;;;;;;5023805;28;20433;-69
2022/03/03 08:49:30;;;;;;;17.67;8.20;;;9.30;70.80;;;;;;5025354;28;20555;-69
2022/03/03 08:51:56;;;;;;;16.50;8.47;;;9.30;70.60;;;;;;5024641;28;20444;-69
2022/03/03 08:54:22;;;;;;;16.70;7.70;;;9.00;70.40;;;;;;5025466;28;20429;-69
2022/03/03 08:56:48;;;;;;;17.17;7.70;;;8.90;71.40;;;;;;5020694;28;20928;-70
2022/03/03 08:59:13;;;;;;;19.63;8.77;;;8.70;72.20;;;;;;5024991;28;20643;-69
2022/03/03 09:01:39;;;;;;;15.60;7.40;;;8.80;71.60;;;;;;5020522;28;20702;-69
2022/03/03 09:04:06;;;;;;;18.83;9.33;;;9.00;71.50;;;;;;5028750;28;20250;-69
2022/03/03 09:06:32;;;;;;;16.83;7.50;;;9.00;70.90;;;;;;5026895;28;20204;-69
2022/03/03 09:08:58;;;;;;;13.63;7.80;;;8.70;71.50;;;;;;5024507;28;20469;-69
2022/03/03 09:11:23;;;;;;;17.23;6.90;;;8.80;70.40;;;;;;5025552;28;20190;-69
2022/03/03 09:13:49;;;;;;;11.23;6.17;;;8.80;71.30;;;;;;5024212;28;20281;-69
2022/03/03 09:16:17;;;;;;;21.63;7.73;;;8.80;69.20;;;;;;5029085;28;20202;-69
2022/03/03 09:18:45;;;;;;;17.60;8.03;;;8.60;70.20;;;;;;5025619;28;20815;-69
2022/03/03 09:21:10;;;;;;;17.83;8.47;;;8.50;70.50;;;;;;5024143;28;20449;-70
2022/03/03 09:23:36;;;;;;;22.57;9.30;;;8.60;73.30;;;;;;5024414;28;20439;-69
2022/03/03 09:26:02;;;;;;;14.20;7.63;;;8.30;74.80;;;;;;5024091;28;20201;-69
2022/03/03 09:28:28;;;;;;;17.40;8.63;;;8.10;75.60;;;;;;5023937;28;20241;-69
2022/03/03 09:30:56;;;;;;;15.17;7.83;;;7.90;75.40;;;;;;5024284;28;20921;-69
2022/03/03 09:33:23;;;;;;;23.73;9.13;;;8.10;75.20;;;;;;5024294;28;20186;-69
2022/03/03 09:35:50;;;;;;;22.50;8.43;;;7.80;75.00;;;;;;5024938;28;20432;-69
2022/03/03 09:38:15;;;;;;;32.80;9.50;;;7.70;75.00;;;;;;5025462;28;20432;-69
2022/03/03 09:40:41;;;;;;;14.17;7.10;;;7.60;75.60;;;;;;5023621;28;20453;-69
2022/03/03 09:43:08;;;;;;;16.10;7.10;;;7.20;74.90;;;;;;5024859;28;20615;-69
2022/03/03 09:45:35;;;;;;;21.97;7.50;;;7.30;75.60;;;;;;5024505;28;20199;-69
2022/03/03 09:48:05;;;;;;;22.13;8.70;;;7.50;74.40;;;;;;5027795;28;20484;-69
2022/03/03 09:50:32;;;;;;;19.43;8.60;;;7.30;73.80;;;;;;5024386;28;20459;-68
2022/03/03 09:52:58;;;;;;;14.97;7.63;;;7.00;74.80;;;;;;5031637;28;20429;-69
2022/03/03 09:55:23;;;;;;;22.03;8.20;;;7.00;74.70;;;;;;5025056;28;20421;-69
2022/03/03 09:57:50;;;;;;;22.43;7.67;;;6.80;76.50;;;;;;5024064;28;20428;-69
2022/03/03 10:00:17;;;;;;;26.30;8.30;;;6.70;75.20;;;;;;5028664;28;20295;-69
2022/03/03 10:03:08;;;;;;;15.37;5.63;;;6.70;74.40;;;;;;5028672;28;20425;-69
2022/03/03 10:05:45;;;;;;;15.70;7.37;;;7.00;66.90;;;;;;5028642;28;20425;-69
2022/03/03 10:08:13;;;;;;;15.33;6.70;;;6.90;68.70;;;;;;5025543;28;20483;-68
2022/03/03 10:10:42;;;;;;;17.37;5.70;;;7.00;68.60;;;;;;5029426;28;20424;-69
2022/03/03 10:13:09;;;;;;;14.80;6.83;;;7.00;69.00;;;;;;5028036;28;20463;-68
2022/03/03 10:15:35;;;;;;;10.53;6.10;;;7.20;69.40;;;;;;5033736;28;20478;-68
2022/03/03 10:18:05;;;;;;;22.83;8.17;;;7.20;71.00;;;;;;5031763;28;20428;-69
2022/03/03 10:20:56;;;;;;;22.07;7.97;;;7.30;74.40;;;;;;5027511;28;20436;-69
2022/03/03 10:23:30;;;;;;;25.70;8.30;;;7.50;74.00;;;;;;5030487;28;20540;-68
2022/03/03 10:25:58;;;;;;;15.20;7.97;;;7.50;74.20;;;;;;5028245;28;20416;-69
2022/03/03 10:28:26;;;;;;;12.80;7.47;;;7.60;74.40;;;;;;5026569;28;20480;-69
2022/03/03 10:31:05;;;;;;;19.17;8.20;;;7.60;74.40;;;;;;5028331;28;20437;-68
2022/03/03 10:33:36;;;;;;;18.33;8.63;;;7.80;74.20;;;;;;5026972;28;20437;-69
2022/03/03 10:36:08;;;;;;;13.53;6.13;;;7.80;73.30;;;;;;5030173;28;20434;-69
2022/03/03 10:38:44;;;;;;;25.77;10.30;;;7.90;73.90;;;;;;5026739;28;20425;-68
2022/03/03 10:41:26;;;;;;;15.93;8.00;;;8.20;71.90;;;;;;5027394;28;20715;-69
2022/03/03 10:43:52;;;;;;;19.87;7.40;;;8.30;71.90;;;;;;5028555;28;20433;-69
2022/03/03 10:46:17;;;;;;;23.93;8.50;;;8.50;69.60;;;;;;5029061;28;20475;-69
2022/03/03 10:48:43;;;;;;;16.37;7.13;;;8.50;69.50;;;;;;5027758;28;20302;-69
2022/03/03 10:51:11;;;;;;;22.33;8.60;;;8.50;68.10;;;;;;5026510;28;20285;-69
2022/03/03 10:53:36;;;;;;;23.40;7.43;;;8.50;69.70;;;;;;5031333;28;20630;-69
2022/03/03 10:56:07;;;;;;;23.93;7.00;;;8.50;67.10;;;;;;5028273;28;20437;-69
2022/03/03 10:58:55;;;;;;;16.77;7.20;;;8.40;67.70;;;;;;5027151;28;20286;-68
2022/03/03 11:01:27;;;;;;;17.27;8.00;;;8.60;69.90;;;;;;5027290;28;20427;-69
2022/03/03 11:03:53;;;;;;;17.80;8.50;;;8.80;69.30;;;;;;5027293;28;20433;-68
2022/03/03 11:06:33;;;;;;;18.37;9.00;;;8.70;70.00;;;;;;5027932;28;20436;-69
2022/03/03 11:09:00;;;;;;;20.57;8.40;;;8.80;70.10;;;;;;5031673;28;21267;-69
2022/03/03 11:11:26;;;;;;;17.00;8.50;;;8.70;71.40;;;;;;5025754;28;20525;-69
2022/03/03 11:13:53;;;;;;;14.50;7.50;;;8.80;70.30;;;;;;5027818;28;20907;-69
2022/03/03 11:16:22;;;;;;;13.97;6.40;;;9.10;70.80;;;;;;5028932;28;21219;-69
2022/03/03 11:18:48;;;;;;;19.17;7.20;;;9.20;70.70;;;;;;5028673;28;20866;-69
2022/03/03 11:21:15;;;;;;;19.63;9.10;;;9.30;70.00;;;;;;5027625;28;20560;-69
2022/03/03 11:23:43;;;;;;;19.07;8.20;;;9.50;69.20;;;;;;5029089;28;20273;-69
2022/03/03 11:26:19;;;;;;;26.23;8.50;;;9.60;69.50;;;;;;5027079;28;20646;-69
2022/03/03 11:29:00;;;;;;;16.50;8.30;;;9.60;68.40;;;;;;5025558;28;20534;-69
2022/03/03 11:31:30;;;;;;;16.80;8.33;;;9.70;67.50;;;;;;5031734;28;20422;-69
2022/03/03 11:34:44;;;;;;;18.07;8.23;;;9.80;68.40;;;;;;5030329;28;20529;-69
2022/03/03 11:37:09;;;;;;;17.37;8.23;;;9.70;69.10;;;;;;5005740;28;20442;-69
2022/03/03 11:39:35;;;;;;;19.23;9.60;;;9.90;68.40;;;;;;5026262;28;20992;-68
2022/03/03 11:42:24;;;;;;;28.90;9.50;;;10.10;67.30;;;;;;5026830;28;20709;-69
2022/03/03 11:44:53;;;;;;;22.70;8.23;;;10.00;66.70;;;;;;5026402;28;20439;-69
2022/03/03 11:47:26;;;;;;;15.70;7.30;;;10.40;65.90;;;;;;5025556;28;20441;-68
2022/03/03 11:50:17;;;;;;;19.67;7.90;;;10.60;63.60;;;;;;5036084;28;20523;-69
2022/03/03 11:53:03;;;;;;;42.10;9.33;;;10.60;63.10;;;;;;5023601;28;20441;-67
2022/03/03 11:55:34;;;;;;;22.33;8.80;;;10.40;64.20;;;;;;5019548;28;20987;-67
2022/03/03 11:58:04;;;;;;;20.13;8.93;;;10.20;66.00;;;;;;5022932;28;20472;-67
2022/03/03 12:00:32;;;;;;;19.27;9.50;;;10.50;66.30;;;;;;5027251;28;20436;-67
2022/03/03 12:03:07;;;;;;;22.27;9.03;;;10.50;66.50;;;;;;5026556;28;20447;-67
2022/03/03 12:05:36;;;;;;;19.30;9.07;;;10.50;67.20;;;;;;5025758;28;20874;-67
2022/03/03 12:08:06;;;;;;;17.97;8.93;;;10.70;67.10;;;;;;5029220;28;20603;-67
2022/03/03 12:10:33;;;;;;;30.40;9.90;;;11.00;65.50;;;;;;5030253;28;20792;-67
2022/03/03 12:13:30;;;;;;;16.87;8.27;;;10.90;65.40;;;;;;5030819;28;20425;-67
2022/03/03 12:16:23;;;;;;;26.80;9.67;;;10.90;65.10;;;;;;5002853;28;20437;-68
2022/03/03 12:19:10;;;;;;;23.27;8.53;;;11.00;64.90;;;;;;5021732;28;20432;-66
2022/03/03 12:21:47;;;;;;;20.20;8.67;;;11.20;63.00;;;;;;5032394;28;20921;-67
2022/03/03 12:24:13;;;;;;;14.97;8.67;;;11.00;61.50;;;;;;5029057;28;20436;-68
2022/03/03 12:26:59;;;;;;;21.83;9.70;;;10.70;62.30;;;;;;5025964;28;20944;-67
2022/03/03 12:29:30;;;;;;;17.63;7.83;;;10.80;63.00;;;;;;5026372;28;20327;-67
2022/03/03 12:31:55;;;;;;;28.83;10.10;;;10.90;62.30;;;;;;5026587;28;20748;-68
2022/03/03 12:34:21;;;;;;;15.97;8.97;;;11.20;63.00;;;;;;5025525;28;20437;-68
2022/03/03 12:36:52;;;;;;;24.00;9.63;;;11.00;64.50;;;;;;5025088;28;20541;-67
2022/03/03 12:39:18;;;;;;;20.30;9.80;;;11.20;64.00;;;;;;5025116;28;20291;-67
2022/03/03 12:41:44;;;;;;;23.70;10.53;;;11.40;63.50;;;;;;5025946;28;20464;-67
2022/03/03 12:44:13;;;;;;;23.00;9.37;;;11.40;64.00;;;;;;5025365;28;20194;-67
2022/03/03 12:46:40;;;;;;;22.97;10.07;;;11.50;63.70;;;;;;5025594;28;20190;-67